createdAt,value
2022-11-09T00:00:11.067Z,78.07
2022-11-09T00:02:42.921Z,79.10
2022-11-09T00:05:11.092Z,80.08
2022-11-09T00:07:38.075Z,79.87
2022-11-09T00:10:05.461Z,80.44
2022-11-09T00:12:32.372Z,80.37
2022-11-09T00:14:59.220Z,80.04
2022-11-09T00:17:26.148Z,81.18
2022-11-09T00:19:53.002Z,81.29
2022-11-09T00:22:19.858Z,80.98
2022-11-09T00:24:46.780Z,80.65
2022-11-09T00:27:17.482Z,80.56
2022-11-09T00:29:44.656Z,80.77
2022-11-09T00:32:11.642Z,80.29
2022-11-09T00:34:38.607Z,80.05
2022-11-09T00:37:06.195Z,79.80
2022-11-09T00:39:33.051Z,79.13
2022-11-09T00:41:59.909Z,79.47
2022-11-09T00:44:29.945Z,79.47
2022-11-09T00:46:56.826Z,79.15
2022-11-09T00:49:23.755Z,77.96
2022-11-09T00:51:50.809Z,78.28
2022-11-09T00:54:17.875Z,77.98
2022-11-09T00:56:44.770Z,77.79
2022-11-09T00:59:12.024Z,77.12
2022-11-09T01:01:39.498Z,77.13
2022-11-09T01:04:06.459Z,76.60
2022-11-09T01:06:34.150Z,76.21
2022-11-09T01:09:02.027Z,76.52
2022-11-09T01:11:28.974Z,76.38
2022-11-09T01:13:56.078Z,75.82
2022-11-09T01:16:24.653Z,75.73
2022-11-09T01:18:58.521Z,75.50
2022-11-09T01:21:26.855Z,75.56
2022-11-09T01:23:53.842Z,76.46
2022-11-09T01:26:20.862Z,75.51
2022-11-09T01:28:50.427Z,77.09
2022-11-09T01:31:19.701Z,76.44
2022-11-09T01:33:47.428Z,76.64
2022-11-09T01:36:25.203Z,76.44
2022-11-09T01:38:52.540Z,77.23
2022-11-09T01:41:24.486Z,76.74
2022-11-09T01:44:14.836Z,76.19
2022-11-09T01:46:54.059Z,76.88
2022-11-09T01:49:26.951Z,76.46
2022-11-09T01:52:02.924Z,76.92
2022-11-09T01:54:38.160Z,76.54
2022-11-09T01:57:10.565Z,75.21
2022-11-09T01:59:43.381Z,75.18
2022-11-09T02:02:10.894Z,75.24
2022-11-09T02:04:55.896Z,76.76
2022-11-09T02:07:23.612Z,76.14
2022-11-09T02:10:00.932Z,75.37
2022-11-09T02:12:29.515Z,75.11
2022-11-09T02:14:57.747Z,75.55
2022-11-09T02:17:26.775Z,76.19
2022-11-09T02:19:53.888Z,76.17
2022-11-09T02:22:20.907Z,76.18
2022-11-09T02:24:50.780Z,75.77
2022-11-09T02:27:20.569Z,75.13
2022-11-09T02:29:49.080Z,74.88
2022-11-09T02:32:20.583Z,74.86
2022-11-09T02:34:48.012Z,74.88
2022-11-09T02:37:28.958Z,75.83
2022-11-09T02:39:59.029Z,75.19
2022-11-09T02:42:26.334Z,74.75
2022-11-09T02:44:58.627Z,74.78
2022-11-09T02:47:26.439Z,74.97
2022-11-09T02:49:54.097Z,74.47
2022-11-09T02:52:20.938Z,74.51
2022-11-09T02:54:47.920Z,75.79
2022-11-09T02:57:15.102Z,76.97
2022-11-09T02:59:42.901Z,75.70
2022-11-09T03:02:10.853Z,74.94
2022-11-09T03:04:39.562Z,75.19
2022-11-09T03:07:07.883Z,75.80
2022-11-09T03:09:34.925Z,76.25
2022-11-09T03:12:21.780Z,76.19
2022-11-09T03:14:49.421Z,75.33
2022-11-09T03:17:17.655Z,74.95
2022-11-09T03:19:45.120Z,74.61
2022-11-09T03:22:13.024Z,75.00
2022-11-09T03:24:39.979Z,76.04
2022-11-09T03:27:06.958Z,76.40
2022-11-09T03:29:33.826Z,77.61
2022-11-09T03:32:01.880Z,77.70
2022-11-09T03:34:28.968Z,77.75
2022-11-09T03:36:56.016Z,77.98
2022-11-09T03:39:22.937Z,78.05
2022-11-09T03:41:49.979Z,78.05
2022-11-09T03:44:16.935Z,78.79
2022-11-09T03:46:44.150Z,78.69
2022-11-09T03:49:11.050Z,78.49
2022-11-09T03:51:38.117Z,78.60
2022-11-09T03:54:05.019Z,78.82
2022-11-09T03:56:31.887Z,79.34
2022-11-09T03:58:58.779Z,79.87
2022-11-09T04:01:25.736Z,80.62
2022-11-09T04:03:52.587Z,80.35
2022-11-09T04:06:19.425Z,80.86
2022-11-09T04:08:51.141Z,81.13
2022-11-09T04:11:19.615Z,81.78
2022-11-09T04:13:47.580Z,82.09
2022-11-09T04:16:14.495Z,82.15
2022-11-09T04:18:41.420Z,82.51
2022-11-09T04:21:08.887Z,82.01
2022-11-09T04:23:35.850Z,82.50
2022-11-09T04:26:02.699Z,81.71
2022-11-09T04:28:29.591Z,81.34
2022-11-09T04:31:01.097Z,81.99
2022-11-09T04:33:28.376Z,81.99
2022-11-09T04:35:55.304Z,82.39
2022-11-09T04:38:22.242Z,82.16
2022-11-09T04:40:49.215Z,82.01
2022-11-09T04:43:16.244Z,82.78
2022-11-09T04:45:43.172Z,82.70
2022-11-09T04:48:11.224Z,82.93
2022-11-09T04:50:38.334Z,82.76
2022-11-09T04:53:10.920Z,82.16
2022-11-09T04:55:38.523Z,81.99
2022-11-09T04:58:05.821Z,80.95
2022-11-09T05:00:33.221Z,81.06
2022-11-09T05:03:05.192Z,81.51
2022-11-09T05:05:36.189Z,82.16
2022-11-09T05:08:03.984Z,81.82
2022-11-09T05:10:31.473Z,81.90
2022-11-09T05:13:06.279Z,81.50
2022-11-09T05:15:33.823Z,81.62
2022-11-09T05:18:01.952Z,81.45
2022-11-09T05:20:29.834Z,80.45
2022-11-09T05:23:17.694Z,80.04
2022-11-09T05:25:44.802Z,79.34
2022-11-09T05:28:12.008Z,78.88
2022-11-09T05:30:39.325Z,78.81
2022-11-09T05:33:06.442Z,78.56
2022-11-09T05:35:34.396Z,78.00
2022-11-09T05:38:01.331Z,77.89
2022-11-09T05:40:28.498Z,77.58
2022-11-09T05:42:56.753Z,77.21
2022-11-09T05:45:41.873Z,77.04
2022-11-09T05:48:11.228Z,76.48
2022-11-09T05:50:38.829Z,76.69
2022-11-09T05:53:24.151Z,76.46
2022-11-09T05:55:51.213Z,76.61
2022-11-09T05:58:18.192Z,75.81
2022-11-09T06:00:45.071Z,75.79
2022-11-09T06:03:12.424Z,76.31
2022-11-09T06:05:41.005Z,76.72
2022-11-09T06:08:10.576Z,76.00
2022-11-09T06:10:37.678Z,75.64
2022-11-09T06:13:04.607Z,75.98
2022-11-09T06:15:31.552Z,75.66
2022-11-09T06:17:59.611Z,76.56
2022-11-09T06:20:28.320Z,76.27
2022-11-09T06:23:02.519Z,76.47
2022-11-09T06:25:31.968Z,75.62
2022-11-09T06:27:59.176Z,75.75
2022-11-09T06:30:26.152Z,75.85
2022-11-09T06:32:59.039Z,75.27
2022-11-09T06:35:26.002Z,75.44
2022-11-09T06:38:00.872Z,75.15
2022-11-09T06:40:28.225Z,74.93
2022-11-09T06:42:59.467Z,74.90
2022-11-09T06:45:27.860Z,74.90
2022-11-09T06:47:58.562Z,74.57
2022-11-09T06:50:27.870Z,74.32
2022-11-09T06:53:03.127Z,74.60
2022-11-09T06:55:31.633Z,74.42
2022-11-09T06:57:58.704Z,74.61
2022-11-09T07:00:27.325Z,74.46
2022-11-09T07:02:54.303Z,74.13
2022-11-09T07:05:21.379Z,74.15
2022-11-09T07:07:48.262Z,74.07
2022-11-09T07:10:15.488Z,74.35
2022-11-09T07:12:42.561Z,74.18
2022-11-09T07:15:11.503Z,73.58
2022-11-09T07:17:39.886Z,74.52
2022-11-09T07:20:08.612Z,74.00
2022-11-09T07:22:39.582Z,73.57
2022-11-09T07:25:07.993Z,73.57
2022-11-09T07:27:35.508Z,73.36
2022-11-09T07:30:02.621Z,73.27
2022-11-09T07:33:01.867Z,73.74
2022-11-09T07:35:16.521Z,72.81
2022-11-09T07:37:43.388Z,72.36
2022-11-09T07:40:10.775Z,72.15
2022-11-09T07:42:37.657Z,72.62
2022-11-09T07:45:06.428Z,71.17
2022-11-09T07:47:33.342Z,70.61
2022-11-09T07:50:00.208Z,71.93
2022-11-09T07:52:27.173Z,70.60
2022-11-09T07:54:54.088Z,69.03
2022-11-09T07:57:21.200Z,69.67
2022-11-09T07:59:48.041Z,69.07
2022-11-09T08:02:14.928Z,68.24
2022-11-09T08:04:41.812Z,68.06
2022-11-09T08:07:08.742Z,68.37
2022-11-09T08:09:35.651Z,68.37
2022-11-09T08:12:02.584Z,69.55
2022-11-09T08:14:29.424Z,68.76
2022-11-09T08:16:56.759Z,68.88
2022-11-09T08:19:23.592Z,69.52
2022-11-09T08:21:50.540Z,69.25
2022-11-09T08:24:17.446Z,68.62
2022-11-09T08:26:44.304Z,68.69
2022-11-09T08:29:13.632Z,68.43
2022-11-09T08:31:40.603Z,68.97
2022-11-09T08:34:12.818Z,68.23
2022-11-09T08:36:40.053Z,67.87
2022-11-09T08:39:06.915Z,67.78
2022-11-09T08:41:34.061Z,67.75
2022-11-09T08:44:00.920Z,67.42
2022-11-09T08:46:27.864Z,67.90
2022-11-09T08:48:54.780Z,68.85
2022-11-09T08:51:21.653Z,67.87
2022-11-09T08:53:48.498Z,67.71
2022-11-09T08:56:19.160Z,67.57
2022-11-09T08:58:46.352Z,67.94
2022-11-09T09:01:16.972Z,67.94
2022-11-09T09:03:44.309Z,67.50
2022-11-09T09:06:11.230Z,66.89
2022-11-09T09:08:38.077Z,66.94
2022-11-09T09:11:06.251Z,67.44
2022-11-09T09:13:35.794Z,67.58
2022-11-09T09:16:10.596Z,66.89
2022-11-09T09:18:37.742Z,67.25
2022-11-09T09:21:11.730Z,66.99
2022-11-09T09:23:38.725Z,66.23
2022-11-09T09:26:06.065Z,67.71
2022-11-09T09:28:33.571Z,66.85
2022-11-09T09:31:01.760Z,65.91
2022-11-09T09:33:29.396Z,66.95
2022-11-09T09:35:57.892Z,67.12
2022-11-09T09:38:26.391Z,65.94
2022-11-09T09:41:00.337Z,65.47
2022-11-09T09:43:59.161Z,65.31
2022-11-09T10:17:12.082Z,70.64
2022-11-09T10:19:50.881Z,69.71
2022-11-09T10:22:49.953Z,68.63
2022-11-09T10:25:37.971Z,68.57
2022-11-09T10:28:14.352Z,67.51
2022-11-09T10:30:42.212Z,65.93
2022-11-09T10:33:09.052Z,65.28
2022-11-09T10:35:42.605Z,64.64
2022-11-09T10:38:15.989Z,66.33
2022-11-09T10:40:50.203Z,65.05
2022-11-09T10:43:35.913Z,65.11
2022-11-09T10:46:21.770Z,64.22
2022-11-09T10:49:21.169Z,64.04
2022-11-09T10:52:27.188Z,64.54
2022-11-09T10:55:24.184Z,63.93
2022-11-09T10:58:30.814Z,64.05
2022-11-09T11:01:20.062Z,64.24
2022-11-09T11:04:23.628Z,63.82
2022-11-09T11:07:21.463Z,64.75
2022-11-09T11:10:25.383Z,64.82
2022-11-09T11:13:10.464Z,63.66
2022-11-09T11:15:55.923Z,64.04
2022-11-09T11:18:46.695Z,65.39
2022-11-09T11:21:32.465Z,65.99
2022-11-09T11:24:21.175Z,66.60
2022-11-09T11:27:14.277Z,66.68
2022-11-09T11:30:10.686Z,66.01
2022-11-09T11:32:56.415Z,65.77
2022-11-09T11:35:53.829Z,66.35
2022-11-09T11:39:11.018Z,65.76
2022-11-09T11:42:05.558Z,65.46
2022-11-09T11:48:39.375Z,64.83
2022-11-09T11:51:49.245Z,65.83
2022-11-09T11:54:37.493Z,65.79
2022-11-09T11:57:47.583Z,64.93
2022-11-09T12:00:50.205Z,65.45
2022-11-09T12:03:50.892Z,65.77
2022-11-09T12:06:44.140Z,66.45
2022-11-09T12:09:47.676Z,66.80
2022-11-09T12:12:33.035Z,66.75
2022-11-09T12:15:30.518Z,66.42
2022-11-09T12:18:42.070Z,66.90
2022-11-09T12:21:57.606Z,66.62
2022-11-09T12:25:16.579Z,65.86
2022-11-09T12:28:23.806Z,65.26
2022-11-09T12:31:21.483Z,65.84
2022-11-09T12:34:13.459Z,65.32
2022-11-09T12:36:58.978Z,64.93
2022-11-09T12:39:55.543Z,64.96
2022-11-09T12:42:49.482Z,64.86
2022-11-09T12:45:38.590Z,65.38
2022-11-09T12:48:31.060Z,65.50
2022-11-09T12:51:17.187Z,64.63
2022-11-09T12:54:11.507Z,64.66
2022-11-09T12:57:01.325Z,66.33
2022-11-09T12:59:50.419Z,65.48
2022-11-09T13:02:55.497Z,66.93
2022-11-09T13:05:43.183Z,66.09
2022-11-09T13:08:31.106Z,65.71
2022-11-09T13:11:39.958Z,65.98
2022-11-09T13:14:31.745Z,66.67
2022-11-09T13:17:29.127Z,65.94
2022-11-09T13:24:14.152Z,66.30
2022-11-09T13:26:47.235Z,66.81
2022-11-09T13:29:41.804Z,65.72
2022-11-09T13:32:30.028Z,65.85
2022-11-09T13:35:40.244Z,66.27
2022-11-09T13:38:28.768Z,65.91
2022-11-09T13:41:29.701Z,65.24
2022-11-09T13:44:19.261Z,65.42
2022-11-09T13:47:05.280Z,65.90
2022-11-09T13:49:52.229Z,66.07
2022-11-09T13:52:42.630Z,64.89
2022-11-09T13:55:40.943Z,64.28
2022-11-09T13:58:34.959Z,63.97
2022-11-09T14:01:59.513Z,64.85
2022-11-09T14:04:45.226Z,64.30
2022-11-09T14:07:38.457Z,65.40
2022-11-09T14:10:46.835Z,64.80
2022-11-09T14:13:51.026Z,65.63
2022-11-09T14:17:11.024Z,65.77
2022-11-09T14:20:20.284Z,65.71
2022-11-09T14:23:19.352Z,66.23
2022-11-09T14:26:18.743Z,66.14
2022-11-09T14:29:24.443Z,66.30
2022-11-09T14:32:37.137Z,66.11
2022-11-09T14:35:36.595Z,67.09
2022-11-09T14:38:36.767Z,67.36
2022-11-09T14:41:27.985Z,67.06
2022-11-09T14:44:23.053Z,67.54
2022-11-09T14:47:20.316Z,67.71
2022-11-09T14:50:14.618Z,67.56
2022-11-09T14:53:01.417Z,68.18
2022-11-09T14:55:52.089Z,67.85
2022-11-09T14:58:41.892Z,69.27
2022-11-09T15:01:28.360Z,68.76
2022-11-09T15:04:22.915Z,71.21
2022-11-09T15:07:18.922Z,69.84
2022-11-09T15:10:08.265Z,70.40
2022-11-09T15:12:57.912Z,70.61
2022-11-09T15:15:51.111Z,71.77
2022-11-09T15:18:42.428Z,72.56
2022-11-09T15:21:27.731Z,73.08
2022-11-09T15:24:17.818Z,71.86
2022-11-09T15:27:04.233Z,71.70
2022-11-09T15:29:49.880Z,72.58
2022-11-09T15:32:39.664Z,73.01
2022-11-09T15:35:25.550Z,71.60
2022-11-09T15:38:33.997Z,70.91
2022-11-09T15:41:22.950Z,71.95
2022-11-09T15:44:10.435Z,72.12
2022-11-09T15:46:55.851Z,72.40
2022-11-09T15:49:41.498Z,71.96
2022-11-09T15:52:27.941Z,71.52
2022-11-09T15:55:22.228Z,71.66
2022-11-09T15:58:07.562Z,71.55
2022-11-09T16:00:52.984Z,71.25
2022-11-09T16:03:38.696Z,71.58
2022-11-09T16:06:24.352Z,71.41
2022-11-09T16:09:10.147Z,71.68
2022-11-09T16:11:55.399Z,72.14
2022-11-09T16:14:40.999Z,71.61
2022-11-09T16:17:26.320Z,71.81
2022-11-09T16:20:12.170Z,71.71
2022-11-09T16:22:57.677Z,71.24
2022-11-09T16:25:44.813Z,72.48
2022-11-09T16:28:30.259Z,72.21
2022-11-09T16:31:16.035Z,72.35
2022-11-09T16:34:01.285Z,73.84
2022-11-09T16:36:52.335Z,72.92
2022-11-09T16:39:40.891Z,73.75
2022-11-09T16:42:26.544Z,73.27
2022-11-09T16:45:15.337Z,72.39
2022-11-09T16:48:03.302Z,73.43
2022-11-09T16:50:49.028Z,74.05
2022-11-09T16:53:34.342Z,73.99
2022-11-09T16:56:19.914Z,73.32
2022-11-09T16:59:04.927Z,73.80
2022-11-09T17:01:57.443Z,73.59
2022-11-09T17:04:43.028Z,72.97
2022-11-09T17:07:28.861Z,73.33
2022-11-09T17:10:14.760Z,72.65
2022-11-09T17:13:01.015Z,73.14
2022-11-09T17:15:48.749Z,73.60
2022-11-09T17:18:35.148Z,73.78
2022-11-09T17:21:21.938Z,73.35
2022-11-09T17:24:07.620Z,74.15
2022-11-09T17:26:53.297Z,73.87
2022-11-09T17:29:39.931Z,73.74
2022-11-09T17:32:28.259Z,73.73
2022-11-09T17:35:13.922Z,74.08
2022-11-09T17:37:59.373Z,74.09
2022-11-09T17:40:44.433Z,74.89
2022-11-09T17:43:31.702Z,74.16
2022-11-09T17:46:20.364Z,74.65
2022-11-09T17:49:09.955Z,74.88
2022-11-09T17:51:56.400Z,74.59
2022-11-09T17:54:42.022Z,75.11
2022-11-09T17:57:27.746Z,75.00
2022-11-09T18:00:13.908Z,74.25
2022-11-09T18:02:59.238Z,75.44
2022-11-09T18:05:45.507Z,74.88
2022-11-09T18:08:31.234Z,75.75
2022-11-09T18:11:18.116Z,75.23
2022-11-09T18:14:03.783Z,75.62
2022-11-09T18:16:49.334Z,75.13
2022-11-09T18:19:34.823Z,74.96
2022-11-09T18:22:20.408Z,75.65
2022-11-09T18:25:06.112Z,74.90
2022-11-09T18:27:52.717Z,74.52
2022-11-09T18:30:41.784Z,75.31
2022-11-09T18:33:28.253Z,76.19
2022-11-09T18:36:16.588Z,75.13
2022-11-09T18:39:03.317Z,74.66
2022-11-09T18:41:49.055Z,75.12
2022-11-09T18:44:34.413Z,75.44
2022-11-09T18:47:20.609Z,75.62
2022-11-09T18:50:07.210Z,76.08
2022-11-09T18:52:52.390Z,75.06
2022-11-09T18:55:37.959Z,76.08
2022-11-09T18:58:23.779Z,76.08
2022-11-09T19:01:09.237Z,76.12
2022-11-09T19:03:59.048Z,76.00
2022-11-09T19:06:45.451Z,76.29
2022-11-09T19:09:38.953Z,76.56
2022-11-09T19:12:25.191Z,76.59
2022-11-09T19:15:10.967Z,76.80
2022-11-09T19:17:57.021Z,77.30
2022-11-09T19:20:42.904Z,76.92
2022-11-09T19:23:34.100Z,75.97
2022-11-09T19:26:20.520Z,76.64
2022-11-09T19:29:07.530Z,76.29
2022-11-09T19:31:53.469Z,75.39
2022-11-09T19:34:38.991Z,76.08
2022-11-09T19:37:24.610Z,75.76
2022-11-09T19:40:10.652Z,75.95
2022-11-09T19:42:56.881Z,75.36
2022-11-09T19:45:42.949Z,75.09
2022-11-09T19:48:28.751Z,75.51
2022-11-09T19:51:15.825Z,75.08
2022-11-09T19:54:02.196Z,76.04
2022-11-09T19:56:48.061Z,75.16
2022-11-09T19:59:34.054Z,75.56
2022-11-09T20:02:19.793Z,75.40
2022-11-09T20:05:05.770Z,75.16
2022-11-09T20:07:51.038Z,74.71
2022-11-09T20:10:37.907Z,74.30
2022-11-09T20:13:24.608Z,75.19
2022-11-09T20:16:10.587Z,74.64
2022-11-09T20:18:56.874Z,75.51
2022-11-09T20:21:42.204Z,75.19
2022-11-09T20:24:27.874Z,76.34
2022-11-09T20:27:13.148Z,75.88
2022-11-09T20:29:58.457Z,74.02
2022-11-09T20:32:43.957Z,73.89
2022-11-09T20:35:29.251Z,73.91
2022-11-09T20:38:14.812Z,75.04
2022-11-09T20:41:03.380Z,74.22
2022-11-09T20:43:48.846Z,73.39
2022-11-09T20:46:36.864Z,73.75
2022-11-09T20:49:22.667Z,73.66
2022-11-09T20:52:07.880Z,73.38
2022-11-09T20:54:53.406Z,73.57
2022-11-09T20:57:39.051Z,73.33
2022-11-09T21:00:24.722Z,72.98
2022-11-09T21:03:10.082Z,73.12
2022-11-09T21:05:59.160Z,72.99
2022-11-09T21:08:46.396Z,73.29
2022-11-09T21:11:35.684Z,73.62
2022-11-09T21:14:21.207Z,73.88
2022-11-09T21:17:06.909Z,74.38
2022-11-09T21:19:52.700Z,74.10
2022-11-09T21:22:56.540Z,74.02
2022-11-09T21:26:02.585Z,74.71
2022-11-09T21:29:06.420Z,75.55
2022-11-09T21:31:52.101Z,74.92
2022-11-09T21:34:37.819Z,74.68
2022-11-09T21:37:23.457Z,74.36
2022-11-09T21:40:09.760Z,74.43
2022-11-09T21:42:56.102Z,75.04
2022-11-09T21:45:42.572Z,74.77
2022-11-09T21:48:27.990Z,75.13
2022-11-09T21:51:13.585Z,75.63
2022-11-09T21:54:00.096Z,75.52
2022-11-09T21:56:47.460Z,75.32
2022-11-09T21:59:32.588Z,74.14
2022-11-09T22:02:18.201Z,75.09
2022-11-09T22:05:03.428Z,75.48
2022-11-09T22:07:49.167Z,76.38
2022-11-09T22:10:34.349Z,75.67
2022-11-09T22:13:37.934Z,75.37
2022-11-09T22:16:25.415Z,75.48
2022-11-09T22:19:29.179Z,77.25
2022-11-09T22:22:15.189Z,80.33
2022-11-09T22:25:00.652Z,78.91
2022-11-09T22:27:46.569Z,78.18
2022-11-09T22:30:31.699Z,77.53
2022-11-09T22:33:21.760Z,78.47
2022-11-09T22:36:12.280Z,78.50
2022-11-09T22:38:57.908Z,78.70
2022-11-09T22:41:43.227Z,78.45
2022-11-09T22:44:28.810Z,79.36
2022-11-09T22:47:14.054Z,79.79
2022-11-09T22:49:59.334Z,80.93
2022-11-09T22:52:45.123Z,80.34
2022-11-09T22:59:42.184Z,78.21
2022-11-09T23:02:29.020Z,78.10
2022-11-09T23:05:14.902Z,78.96
2022-11-09T23:08:00.359Z,79.03
2022-11-09T23:10:54.664Z,79.12
2022-11-09T23:13:40.555Z,79.78
2022-11-09T23:16:26.340Z,80.09
2022-11-09T23:19:12.052Z,79.80
2022-11-09T23:21:57.539Z,79.98
2022-11-09T23:25:01.547Z,79.55
2022-11-09T23:27:51.101Z,79.77
2022-11-09T23:35:40.983Z,80.97
